sensor_id;sensor_type;location;lat;lon;timestamp;temperature;humidity
8595;DHT22;4335;48.860;9.198;2022-09-09T00:00:56;16.40;99.90
8595;DHT22;4335;48.860;9.198;2022-09-09T00:03:26;16.40;99.90
8595;DHT22;4335;48.860;9.198;2022-09-09T00:06:06;16.40;99.90
8595;DHT22;4335;48.860;9.198;2022-09-09T00:08:44;16.40;99.90
8595;DHT22;4335;48.860;9.198;2022-09-09T00:11:13;16.30;99.90
8595;DHT22;4335;48.860;9.198;2022-09-09T00:13:47;16.30;99.90
8595;DHT22;4335;48.860;9.198;2022-09-09T00:16:17;16.20;99.90
8595;DHT22;4335;48.860;9.198;2022-09-09T00:18:53;16.20;99.90
8595;DHT22;4335;48.860;9.198;2022-09-09T00:21:25;16.20;99.90
8595;DHT22;4335;48.860;9.198;2022-09-09T00:23:55;16.20;99.90
8595;DHT22;4335;48.860;9.198;2022-09-09T00:26:29;16.20;99.90
8595;DHT22;4335;48.860;9.198;2022-09-09T00:29:03;16.20;99.90
8595;DHT22;4335;48.860;9.198;2022-09-09T00:31:40;16.20;99.90
8595;DHT22;4335;48.860;9.198;2022-09-09T00:34:12;16.20;99.90
8595;DHT22;4335;48.860;9.198;2022-09-09T00:36:40;16.20;99.90
8595;DHT22;4335;48.860;9.198;2022-09-09T00:39:13;16.20;99.90
8595;DHT22;4335;48.860;9.198;2022-09-09T00:41:54;16.20;99.90
8595;DHT22;4335;48.860;9.198;2022-09-09T00:44:33;16.20;99.90
8595;DHT22;4335;48.860;9.198;2022-09-09T00:47:21;16.20;99.90
8595;DHT22;4335;48.860;9.198;2022-09-09T00:49:58;16.30;99.90
8595;DHT22;4335;48.860;9.198;2022-09-09T00:52:36;16.20;99.90
8595;DHT22;4335;48.860;9.198;2022-09-09T00:55:10;16.20;99.90
8595;DHT22;4335;48.860;9.198;2022-09-09T00:57:39;16.30;99.90
8595;DHT22;4335;48.860;9.198;2022-09-09T01:00:22;16.30;99.90
8595;DHT22;4335;48.860;9.198;2022-09-09T01:03:07;16.30;99.90
8595;DHT22;4335;48.860;9.198;2022-09-09T01:05:42;16.40;99.90
8595;DHT22;4335;48.860;9.198;2022-09-09T01:08:25;16.40;99.90
8595;DHT22;4335;48.860;9.198;2022-09-09T01:10:54;16.40;99.90
8595;DHT22;4335;48.860;9.198;2022-09-09T01:13:27;16.40;99.90
8595;DHT22;4335;48.860;9.198;2022-09-09T01:15:57;16.40;99.90
8595;DHT22;4335;48.860;9.198;2022-09-09T01:18:27;16.50;99.90
8595;DHT22;4335;48.860;9.198;2022-09-09T01:21:00;16.50;99.90
8595;DHT22;4335;48.860;9.198;2022-09-09T01:23:43;16.50;99.90
8595;DHT22;4335;48.860;9.198;2022-09-09T01:26:22;16.50;99.90
8595;DHT22;4335;48.860;9.198;2022-09-09T01:28:52;16.60;99.90
8595;DHT22;4335;48.860;9.198;2022-09-09T01:31:26;16.60;99.90
8595;DHT22;4335;48.860;9.198;2022-09-09T01:33:56;16.60;99.90
8595;DHT22;4335;48.860;9.198;2022-09-09T01:36:40;16.60;99.90
8595;DHT22;4335;48.860;9.198;2022-09-09T01:39:08;16.60;99.90
8595;DHT22;4335;48.860;9.198;2022-09-09T01:41:39;16.70;99.90
8595;DHT22;4335;48.860;9.198;2022-09-09T01:44:09;16.70;99.90
8595;DHT22;4335;48.860;9.198;2022-09-09T01:46:36;16.70;99.90
8595;DHT22;4335;48.860;9.198;2022-09-09T01:49:05;16.70;99.90
8595;DHT22;4335;48.860;9.198;2022-09-09T01:51:33;16.70;99.90
8595;DHT22;4335;48.860;9.198;2022-09-09T01:54:03;16.80;99.90
8595;DHT22;4335;48.860;9.198;2022-09-09T01:56:40;16.70;99.90
8595;DHT22;4335;48.860;9.198;2022-09-09T01:59:23;16.70;99.90
8595;DHT22;4335;48.860;9.198;2022-09-09T02:02:01;16.80;99.90
8595;DHT22;4335;48.860;9.198;2022-09-09T02:04:40;16.80;99.90
8595;DHT22;4335;48.860;9.198;2022-09-09T02:07:18;16.80;99.90
8595;DHT22;4335;48.860;9.198;2022-09-09T02:09:52;16.80;99.90
8595;DHT22;4335;48.860;9.198;2022-09-09T02:12:24;16.80;99.90
8595;DHT22;4335;48.860;9.198;2022-09-09T02:14:56;16.70;99.90
8595;DHT22;4335;48.860;9.198;2022-09-09T02:17:27;16.70;99.90
8595;DHT22;4335;48.860;9.198;2022-09-09T02:19:59;16.70;99.90
8595;DHT22;4335;48.860;9.198;2022-09-09T02:22:30;16.60;99.90
8595;DHT22;4335;48.860;9.198;2022-09-09T02:24:59;16.60;99.90
8595;DHT22;4335;48.860;9.198;2022-09-09T02:27:27;16.60;99.90
8595;DHT22;4335;48.860;9.198;2022-09-09T02:29:56;16.60;99.90
8595;DHT22;4335;48.860;9.198;2022-09-09T02:32:26;16.50;99.90
8595;DHT22;4335;48.860;9.198;2022-09-09T02:35:00;16.50;99.90
8595;DHT22;4335;48.860;9.198;2022-09-09T02:37:33;16.50;99.90
8595;DHT22;4335;48.860;9.198;2022-09-09T02:40:02;16.50;99.90
8595;DHT22;4335;48.860;9.198;2022-09-09T02:42:37;16.50;99.90
8595;DHT22;4335;48.860;9.198;2022-09-09T02:45:06;16.40;99.90
8595;DHT22;4335;48.860;9.198;2022-09-09T02:47:35;16.40;99.90
8595;DHT22;4335;48.860;9.198;2022-09-09T02:50:08;16.40;99.90
8595;DHT22;4335;48.860;9.198;2022-09-09T02:52:50;16.40;99.90
8595;DHT22;4335;48.860;9.198;2022-09-09T02:55:27;16.40;99.90
8595;DHT22;4335;48.860;9.198;2022-09-09T02:57:59;16.30;99.90
8595;DHT22;4335;48.860;9.198;2022-09-09T03:00:27;16.30;99.90
8595;DHT22;4335;48.860;9.198;2022-09-09T03:03:00;16.30;99.90
8595;DHT22;4335;48.860;9.198;2022-09-09T03:05:27;16.20;99.90
8595;DHT22;4335;48.860;9.198;2022-09-09T03:07:57;16.20;99.90
8595;DHT22;4335;48.860;9.198;2022-09-09T03:10:26;16.20;99.90
8595;DHT22;4335;48.860;9.198;2022-09-09T03:12:53;16.20;99.90
8595;DHT22;4335;48.860;9.198;2022-09-09T03:15:22;16.20;99.90
8595;DHT22;4335;48.860;9.198;2022-09-09T03:17:49;16.20;99.90
8595;DHT22;4335;48.860;9.198;2022-09-09T03:20:16;16.10;99.90
8595;DHT22;4335;48.860;9.198;2022-09-09T03:22:43;16.10;99.90
8595;DHT22;4335;48.860;9.198;2022-09-09T03:25:10;16.10;99.90
8595;DHT22;4335;48.860;9.198;2022-09-09T03:27:37;16.10;99.90
8595;DHT22;4335;48.860;9.198;2022-09-09T03:30:07;16.10;99.90
8595;DHT22;4335;48.860;9.198;2022-09-09T03:32:35;16.10;99.90
8595;DHT22;4335;48.860;9.198;2022-09-09T03:35:02;16.10;99.90
8595;DHT22;4335;48.860;9.198;2022-09-09T03:37:29;16.10;99.90
8595;DHT22;4335;48.860;9.198;2022-09-09T03:39:55;16.00;99.90
8595;DHT22;4335;48.860;9.198;2022-09-09T03:42:25;16.00;99.90
8595;DHT22;4335;48.860;9.198;2022-09-09T03:44:55;16.00;99.90
8595;DHT22;4335;48.860;9.198;2022-09-09T03:47:32;15.90;99.90
8595;DHT22;4335;48.860;9.198;2022-09-09T03:50:00;15.90;99.90
8595;DHT22;4335;48.860;9.198;2022-09-09T03:52:26;15.80;99.90
8595;DHT22;4335;48.860;9.198;2022-09-09T03:54:53;15.80;99.90
8595;DHT22;4335;48.860;9.198;2022-09-09T03:57:25;15.80;99.90
8595;DHT22;4335;48.860;9.198;2022-09-09T03:59:54;15.70;99.90
8595;DHT22;4335;48.860;9.198;2022-09-09T04:02:24;15.70;99.90
8595;DHT22;4335;48.860;9.198;2022-09-09T04:04:54;15.70;99.90
8595;DHT22;4335;48.860;9.198;2022-09-09T04:07:21;15.80;99.90
8595;DHT22;4335;48.860;9.198;2022-09-09T04:09:48;15.80;99.90
8595;DHT22;4335;48.860;9.198;2022-09-09T04:12:15;15.70;99.90
8595;DHT22;4335;48.860;9.198;2022-09-09T04:14:48;15.80;99.90
8595;DHT22;4335;48.860;9.198;2022-09-09T04:17:17;15.80;99.90
8595;DHT22;4335;48.860;9.198;2022-09-09T04:19:44;15.80;99.90
8595;DHT22;4335;48.860;9.198;2022-09-09T04:22:10;15.90;99.90
8595;DHT22;4335;48.860;9.198;2022-09-09T04:24:38;15.90;99.90
8595;DHT22;4335;48.860;9.198;2022-09-09T04:27:05;15.90;99.90
8595;DHT22;4335;48.860;9.198;2022-09-09T04:29:31;16.00;99.90
8595;DHT22;4335;48.860;9.198;2022-09-09T04:32:01;16.00;99.90
8595;DHT22;4335;48.860;9.198;2022-09-09T04:34:28;16.00;99.90
8595;DHT22;4335;48.860;9.198;2022-09-09T04:37:04;16.00;99.90
8595;DHT22;4335;48.860;9.198;2022-09-09T04:39:35;16.00;99.90
8595;DHT22;4335;48.860;9.198;2022-09-09T04:42:03;16.00;99.90
8595;DHT22;4335;48.860;9.198;2022-09-09T04:44:33;16.00;99.90
8595;DHT22;4335;48.860;9.198;2022-09-09T04:47:03;16.00;99.90
8595;DHT22;4335;48.860;9.198;2022-09-09T04:49:29;16.00;99.90
8595;DHT22;4335;48.860;9.198;2022-09-09T04:51:56;16.00;99.90
8595;DHT22;4335;48.860;9.198;2022-09-09T04:54:23;16.00;99.90
8595;DHT22;4335;48.860;9.198;2022-09-09T04:56:52;16.00;99.90
8595;DHT22;4335;48.860;9.198;2022-09-09T04:59:21;15.90;99.90
8595;DHT22;4335;48.860;9.198;2022-09-09T05:01:48;15.90;99.90
8595;DHT22;4335;48.860;9.198;2022-09-09T05:04:15;15.90;99.90
8595;DHT22;4335;48.860;9.198;2022-09-09T05:06:52;15.90;99.90
8595;DHT22;4335;48.860;9.198;2022-09-09T05:09:21;15.90;99.90
8595;DHT22;4335;48.860;9.198;2022-09-09T05:11:51;15.90;99.90
8595;DHT22;4335;48.860;9.198;2022-09-09T05:14:21;16.00;99.90
8595;DHT22;4335;48.860;9.198;2022-09-09T05:16:48;16.00;99.90
8595;DHT22;4335;48.860;9.198;2022-09-09T05:19:15;16.10;99.90
8595;DHT22;4335;48.860;9.198;2022-09-09T05:21:50;16.20;99.90
8595;DHT22;4335;48.860;9.198;2022-09-09T05:24:19;16.30;99.90
8595;DHT22;4335;48.860;9.198;2022-09-09T05:26:48;16.40;99.90
8595;DHT22;4335;48.860;9.198;2022-09-09T05:29:15;16.50;99.90
8595;DHT22;4335;48.860;9.198;2022-09-09T05:31:48;16.60;99.90
8595;DHT22;4335;48.860;9.198;2022-09-09T05:34:15;16.60;99.90
8595;DHT22;4335;48.860;9.198;2022-09-09T05:36:42;16.70;99.90
8595;DHT22;4335;48.860;9.198;2022-09-09T05:39:08;16.70;99.90
8595;DHT22;4335;48.860;9.198;2022-09-09T05:41:35;16.80;99.90
8595;DHT22;4335;48.860;9.198;2022-09-09T05:44:02;17.00;99.90
8595;DHT22;4335;48.860;9.198;2022-09-09T05:46:29;17.20;99.90
8595;DHT22;4335;48.860;9.198;2022-09-09T05:49:03;17.40;99.90
8595;DHT22;4335;48.860;9.198;2022-09-09T05:51:37;17.50;99.90
8595;DHT22;4335;48.860;9.198;2022-09-09T05:54:04;17.60;99.90
8595;DHT22;4335;48.860;9.198;2022-09-09T05:56:33;17.70;99.90
8595;DHT22;4335;48.860;9.198;2022-09-09T05:59:00;17.60;99.90
8595;DHT22;4335;48.860;9.198;2022-09-09T06:01:28;17.70;99.90
8595;DHT22;4335;48.860;9.198;2022-09-09T06:03:56;17.80;99.90
8595;DHT22;4335;48.860;9.198;2022-09-09T06:06:25;17.90;99.90
8595;DHT22;4335;48.860;9.198;2022-09-09T06:08:53;17.90;99.90
8595;DHT22;4335;48.860;9.198;2022-09-09T06:11:25;18.00;99.90
8595;DHT22;4335;48.860;9.198;2022-09-09T06:13:54;18.20;99.90
8595;DHT22;4335;48.860;9.198;2022-09-09T06:16:25;18.30;99.90
8595;DHT22;4335;48.860;9.198;2022-09-09T06:18:52;18.40;99.90
8595;DHT22;4335;48.860;9.198;2022-09-09T06:21:21;18.50;99.90
8595;DHT22;4335;48.860;9.198;2022-09-09T06:23:52;18.50;99.90
8595;DHT22;4335;48.860;9.198;2022-09-09T06:26:20;18.50;99.90
8595;DHT22;4335;48.860;9.198;2022-09-09T06:28:48;18.50;99.90
8595;DHT22;4335;48.860;9.198;2022-09-09T06:31:17;18.40;99.90
8595;DHT22;4335;48.860;9.198;2022-09-09T06:33:43;18.50;99.90
8595;DHT22;4335;48.860;9.198;2022-09-09T06:36:12;18.40;99.90
8595;DHT22;4335;48.860;9.198;2022-09-09T06:38:44;18.50;99.90
8595;DHT22;4335;48.860;9.198;2022-09-09T06:41:15;18.50;99.90
8595;DHT22;4335;48.860;9.198;2022-09-09T06:43:42;18.50;99.90
8595;DHT22;4335;48.860;9.198;2022-09-09T06:46:17;18.50;99.90
8595;DHT22;4335;48.860;9.198;2022-09-09T06:48:45;18.60;99.90
8595;DHT22;4335;48.860;9.198;2022-09-09T06:51:14;18.60;99.90
8595;DHT22;4335;48.860;9.198;2022-09-09T06:53:42;18.60;99.90
8595;DHT22;4335;48.860;9.198;2022-09-09T06:56:21;18.70;99.90
8595;DHT22;4335;48.860;9.198;2022-09-09T06:58:49;18.70;99.90
8595;DHT22;4335;48.860;9.198;2022-09-09T07:01:20;18.80;99.90
8595;DHT22;4335;48.860;9.198;2022-09-09T07:03:48;18.90;99.90
8595;DHT22;4335;48.860;9.198;2022-09-09T07:06:19;19.00;99.90
8595;DHT22;4335;48.860;9.198;2022-09-09T07:08:50;19.00;99.90
8595;DHT22;4335;48.860;9.198;2022-09-09T07:11:23;19.10;99.90
8595;DHT22;4335;48.860;9.198;2022-09-09T07:13:50;19.20;99.90
8595;DHT22;4335;48.860;9.198;2022-09-09T07:16:20;19.20;99.90
8595;DHT22;4335;48.860;9.198;2022-09-09T07:18:52;19.20;99.90
8595;DHT22;4335;48.860;9.198;2022-09-09T07:21:19;19.40;99.90
8595;DHT22;4335;48.860;9.198;2022-09-09T07:23:49;19.60;99.90
8595;DHT22;4335;48.860;9.198;2022-09-09T07:26:17;19.70;99.90
8595;DHT22;4335;48.860;9.198;2022-09-09T07:28:49;19.90;99.90
8595;DHT22;4335;48.860;9.198;2022-09-09T07:31:20;20.10;99.90
8595;DHT22;4335;48.860;9.198;2022-09-09T07:33:58;20.30;99.90
8595;DHT22;4335;48.860;9.198;2022-09-09T07:36:27;20.40;99.90
8595;DHT22;4335;48.860;9.198;2022-09-09T07:38:56;20.50;99.90
8595;DHT22;4335;48.860;9.198;2022-09-09T07:41:24;20.60;99.90
8595;DHT22;4335;48.860;9.198;2022-09-09T07:43:53;20.70;99.90
8595;DHT22;4335;48.860;9.198;2022-09-09T07:46:26;20.80;99.90
8595;DHT22;4335;48.860;9.198;2022-09-09T07:48:55;20.90;99.90
8595;DHT22;4335;48.860;9.198;2022-09-09T07:51:23;21.10;99.90
8595;DHT22;4335;48.860;9.198;2022-09-09T07:53:54;21.30;99.90
8595;DHT22;4335;48.860;9.198;2022-09-09T07:56:21;21.50;99.90
8595;DHT22;4335;48.860;9.198;2022-09-09T07:58:50;21.60;99.90
8595;DHT22;4335;48.860;9.198;2022-09-09T08:01:18;21.60;99.90
8595;DHT22;4335;48.860;9.198;2022-09-09T08:03:45;21.50;99.90
8595;DHT22;4335;48.860;9.198;2022-09-09T08:06:13;21.30;99.90
8595;DHT22;4335;48.860;9.198;2022-09-09T08:08:43;21.30;99.90
8595;DHT22;4335;48.860;9.198;2022-09-09T08:11:13;21.10;99.90
8595;DHT22;4335;48.860;9.198;2022-09-09T08:13:42;21.10;99.90
8595;DHT22;4335;48.860;9.198;2022-09-09T08:16:10;21.30;99.90
8595;DHT22;4335;48.860;9.198;2022-09-09T08:18:38;21.60;99.90
8595;DHT22;4335;48.860;9.198;2022-09-09T08:21:11;21.70;99.90
8595;DHT22;4335;48.860;9.198;2022-09-09T08:23:53;21.80;99.90
8595;DHT22;4335;48.860;9.198;2022-09-09T08:26:24;21.80;99.90
8595;DHT22;4335;48.860;9.198;2022-09-09T08:28:59;21.70;99.90
8595;DHT22;4335;48.860;9.198;2022-09-09T08:31:28;21.60;99.90
8595;DHT22;4335;48.860;9.198;2022-09-09T08:33:57;21.40;99.90
8595;DHT22;4335;48.860;9.198;2022-09-09T08:36:27;21.30;99.90
8595;DHT22;4335;48.860;9.198;2022-09-09T08:38:55;21.30;99.90
8595;DHT22;4335;48.860;9.198;2022-09-09T08:41:40;21.30;99.90
8595;DHT22;4335;48.860;9.198;2022-09-09T08:44:13;21.30;99.90
8595;DHT22;4335;48.860;9.198;2022-09-09T08:46:46;21.30;99.90
8595;DHT22;4335;48.860;9.198;2022-09-09T08:49:38;21.20;99.90
8595;DHT22;4335;48.860;9.198;2022-09-09T08:52:09;21.10;99.90
8595;DHT22;4335;48.860;9.198;2022-09-09T08:54:39;20.90;99.90
8595;DHT22;4335;48.860;9.198;2022-09-09T08:57:13;20.90;99.90
8595;DHT22;4335;48.860;9.198;2022-09-09T08:59:43;21.00;99.90
8595;DHT22;4335;48.860;9.198;2022-09-09T09:02:22;20.90;99.90
8595;DHT22;4335;48.860;9.198;2022-09-09T09:05:06;21.00;99.90
8595;DHT22;4335;48.860;9.198;2022-09-09T09:07:50;21.10;99.90
8595;DHT22;4335;48.860;9.198;2022-09-09T09:10:37;21.20;99.90
8595;DHT22;4335;48.860;9.198;2022-09-09T09:13:15;21.90;99.90
8595;DHT22;4335;48.860;9.198;2022-09-09T09:15:44;22.50;99.90
8595;DHT22;4335;48.860;9.198;2022-09-09T09:18:13;22.70;99.90
8595;DHT22;4335;48.860;9.198;2022-09-09T09:20:53;23.90;99.90
8595;DHT22;4335;48.860;9.198;2022-09-09T09:23:23;24.80;99.90
8595;DHT22;4335;48.860;9.198;2022-09-09T09:25:55;25.30;99.90
8595;DHT22;4335;48.860;9.198;2022-09-09T09:28:29;25.00;99.90
8595;DHT22;4335;48.860;9.198;2022-09-09T09:30:59;24.70;99.90
8595;DHT22;4335;48.860;9.198;2022-09-09T09:33:32;24.50;99.90
8595;DHT22;4335;48.860;9.198;2022-09-09T09:36:02;24.20;99.90
8595;DHT22;4335;48.860;9.198;2022-09-09T09:38:32;24.00;99.90
8595;DHT22;4335;48.860;9.198;2022-09-09T09:41:06;23.90;99.90
8595;DHT22;4335;48.860;9.198;2022-09-09T09:43:34;23.50;99.90
8595;DHT22;4335;48.860;9.198;2022-09-09T09:46:03;23.40;99.90
8595;DHT22;4335;48.860;9.198;2022-09-09T09:48:30;23.90;99.90
8595;DHT22;4335;48.860;9.198;2022-09-09T09:50:59;24.70;99.90
8595;DHT22;4335;48.860;9.198;2022-09-09T09:53:30;26.70;99.90
8595;DHT22;4335;48.860;9.198;2022-09-09T09:55:58;29.40;96.10
8595;DHT22;4335;48.860;9.198;2022-09-09T09:58:26;31.50;89.80
8595;DHT22;4335;48.860;9.198;2022-09-09T10:00:53;33.60;73.70
8595;DHT22;4335;48.860;9.198;2022-09-09T10:03:26;34.70;64.30
8595;DHT22;4335;48.860;9.198;2022-09-09T10:05:53;35.90;57.40
8595;DHT22;4335;48.860;9.198;2022-09-09T10:08:20;37.10;54.20
8595;DHT22;4335;48.860;9.198;2022-09-09T10:13:50;37.80;48.80
8595;DHT22;4335;48.860;9.198;2022-09-09T10:16:29;37.60;47.10
8595;DHT22;4335;48.860;9.198;2022-09-09T10:18:59;37.80;45.80
8595;DHT22;4335;48.860;9.198;2022-09-09T10:21:40;37.90;45.30
8595;DHT22;4335;48.860;9.198;2022-09-09T10:27:27;37.50;45.20
8595;DHT22;4335;48.860;9.198;2022-09-09T10:30:14;37.70;44.50
8595;DHT22;4335;48.860;9.198;2022-09-09T10:32:48;37.30;44.60
8595;DHT22;4335;48.860;9.198;2022-09-09T10:35:32;36.90;44.80
8595;DHT22;4335;48.860;9.198;2022-09-09T10:38:12;36.60;45.30
8595;DHT22;4335;48.860;9.198;2022-09-09T10:40:46;36.10;45.40
8595;DHT22;4335;48.860;9.198;2022-09-09T10:43:29;35.00;47.00
8595;DHT22;4335;48.860;9.198;2022-09-09T10:46:05;34.10;48.80
8595;DHT22;4335;48.860;9.198;2022-09-09T10:48:43;33.30;50.30
8595;DHT22;4335;48.860;9.198;2022-09-09T10:51:22;32.00;52.00
8595;DHT22;4335;48.860;9.198;2022-09-09T10:53:58;31.10;53.70
8595;DHT22;4335;48.860;9.198;2022-09-09T10:56:30;29.80;55.40
8595;DHT22;4335;48.860;9.198;2022-09-09T10:59:00;28.50;58.40
8595;DHT22;4335;48.860;9.198;2022-09-09T11:01:34;27.90;59.90
8595;DHT22;4335;48.860;9.198;2022-09-09T11:04:10;26.80;61.60
8595;DHT22;4335;48.860;9.198;2022-09-09T11:06:42;26.50;63.10
8595;DHT22;4335;48.860;9.198;2022-09-09T11:09:15;25.90;65.00
8595;DHT22;4335;48.860;9.198;2022-09-09T11:11:45;25.30;70.40
8595;DHT22;4335;48.860;9.198;2022-09-09T11:14:21;25.00;74.00
8595;DHT22;4335;48.860;9.198;2022-09-09T11:16:53;24.60;75.90
8595;DHT22;4335;48.860;9.198;2022-09-09T11:19:26;24.40;77.70
8595;DHT22;4335;48.860;9.198;2022-09-09T11:21:54;24.00;81.20
8595;DHT22;4335;48.860;9.198;2022-09-09T11:24:23;23.40;87.70
8595;DHT22;4335;48.860;9.198;2022-09-09T11:26:55;22.90;96.80
8595;DHT22;4335;48.860;9.198;2022-09-09T11:29:43;22.40;99.90
8595;DHT22;4335;48.860;9.198;2022-09-09T11:32:27;22.00;99.90
8595;DHT22;4335;48.860;9.198;2022-09-09T11:35:02;21.80;99.90
8595;DHT22;4335;48.860;9.198;2022-09-09T11:37:50;21.70;99.90
8595;DHT22;4335;48.860;9.198;2022-09-09T11:40:23;21.80;99.90
8595;DHT22;4335;48.860;9.198;2022-09-09T11:43:01;21.60;99.90
8595;DHT22;4335;48.860;9.198;2022-09-09T11:45:31;21.60;99.90
8595;DHT22;4335;48.860;9.198;2022-09-09T11:48:02;21.70;99.90
8595;DHT22;4335;48.860;9.198;2022-09-09T11:50:34;21.70;99.90
8595;DHT22;4335;48.860;9.198;2022-09-09T11:53:16;21.60;99.90
8595;DHT22;4335;48.860;9.198;2022-09-09T11:55:45;21.70;99.90
8595;DHT22;4335;48.860;9.198;2022-09-09T11:58:17;21.70;99.90
8595;DHT22;4335;48.860;9.198;2022-09-09T12:00:45;21.70;99.90
8595;DHT22;4335;48.860;9.198;2022-09-09T12:03:34;21.70;99.90
8595;DHT22;4335;48.860;9.198;2022-09-09T12:06:11;21.80;99.90
8595;DHT22;4335;48.860;9.198;2022-09-09T12:08:41;22.10;99.90
8595;DHT22;4335;48.860;9.198;2022-09-09T12:11:09;22.20;99.90
8595;DHT22;4335;48.860;9.198;2022-09-09T12:13:35;22.30;99.90
8595;DHT22;4335;48.860;9.198;2022-09-09T12:16:03;22.40;99.90
8595;DHT22;4335;48.860;9.198;2022-09-09T12:18:33;22.40;99.90
8595;DHT22;4335;48.860;9.198;2022-09-09T12:21:05;22.50;99.90
8595;DHT22;4335;48.860;9.198;2022-09-09T12:23:40;22.70;99.90
8595;DHT22;4335;48.860;9.198;2022-09-09T12:26:28;22.80;99.90
8595;DHT22;4335;48.860;9.198;2022-09-09T12:29:04;22.80;99.90
8595;DHT22;4335;48.860;9.198;2022-09-09T12:31:38;22.60;99.90
8595;DHT22;4335;48.860;9.198;2022-09-09T12:34:13;22.50;99.90
8595;DHT22;4335;48.860;9.198;2022-09-09T12:36:41;22.40;99.90
8595;DHT22;4335;48.860;9.198;2022-09-09T12:39:15;22.30;99.90
8595;DHT22;4335;48.860;9.198;2022-09-09T12:41:51;22.30;99.90
8595;DHT22;4335;48.860;9.198;2022-09-09T12:44:22;22.30;99.90
8595;DHT22;4335;48.860;9.198;2022-09-09T12:46:50;22.20;99.90
8595;DHT22;4335;48.860;9.198;2022-09-09T12:49:28;22.10;99.90
8595;DHT22;4335;48.860;9.198;2022-09-09T12:51:55;22.20;99.90
8595;DHT22;4335;48.860;9.198;2022-09-09T12:54:23;22.30;99.90
8595;DHT22;4335;48.860;9.198;2022-09-09T12:56:50;22.40;99.90
8595;DHT22;4335;48.860;9.198;2022-09-09T12:59:24;22.40;99.90
8595;DHT22;4335;48.860;9.198;2022-09-09T13:01:56;22.40;99.90
8595;DHT22;4335;48.860;9.198;2022-09-09T13:04:23;22.50;99.90
8595;DHT22;4335;48.860;9.198;2022-09-09T13:06:53;22.60;99.90
8595;DHT22;4335;48.860;9.198;2022-09-09T13:09:21;22.80;99.90
8595;DHT22;4335;48.860;9.198;2022-09-09T13:11:51;22.90;99.90
8595;DHT22;4335;48.860;9.198;2022-09-09T13:14:22;23.10;99.90
8595;DHT22;4335;48.860;9.198;2022-09-09T13:16:58;23.30;99.90
8595;DHT22;4335;48.860;9.198;2022-09-09T13:19:25;23.20;99.90
8595;DHT22;4335;48.860;9.198;2022-09-09T13:21:55;23.30;99.90
8595;DHT22;4335;48.860;9.198;2022-09-09T13:24:30;23.40;99.90
8595;DHT22;4335;48.860;9.198;2022-09-09T13:26:58;23.60;99.90
8595;DHT22;4335;48.860;9.198;2022-09-09T13:29:26;23.70;99.90
8595;DHT22;4335;48.860;9.198;2022-09-09T13:31:53;23.70;99.90
8595;DHT22;4335;48.860;9.198;2022-09-09T13:34:29;23.80;99.90
8595;DHT22;4335;48.860;9.198;2022-09-09T13:36:59;23.90;99.90
8595;DHT22;4335;48.860;9.198;2022-09-09T13:39:37;23.90;99.90
8595;DHT22;4335;48.860;9.198;2022-09-09T13:42:05;23.90;99.90
8595;DHT22;4335;48.860;9.198;2022-09-09T13:44:36;24.00;99.90
8595;DHT22;4335;48.860;9.198;2022-09-09T13:47:06;24.00;99.90
8595;DHT22;4335;48.860;9.198;2022-09-09T13:49:45;24.00;99.90
8595;DHT22;4335;48.860;9.198;2022-09-09T13:52:14;24.10;99.90
8595;DHT22;4335;48.860;9.198;2022-09-09T13:54:41;24.00;99.30
8595;DHT22;4335;48.860;9.198;2022-09-09T13:57:15;24.00;98.80
8595;DHT22;4335;48.860;9.198;2022-09-09T13:59:43;23.90;98.70
8595;DHT22;4335;48.860;9.198;2022-09-09T14:02:10;24.00;98.80
8595;DHT22;4335;48.860;9.198;2022-09-09T14:04:36;23.90;99.00
8595;DHT22;4335;48.860;9.198;2022-09-09T14:07:04;23.80;98.70
8595;DHT22;4335;48.860;9.198;2022-09-09T14:09:30;24.00;98.80
8595;DHT22;4335;48.860;9.198;2022-09-09T14:11:56;24.10;97.80
8595;DHT22;4335;48.860;9.198;2022-09-09T14:14:23;24.20;97.00
8595;DHT22;4335;48.860;9.198;2022-09-09T14:16:49;24.20;96.80
8595;DHT22;4335;48.860;9.198;2022-09-09T14:19:15;24.10;97.00
8595;DHT22;4335;48.860;9.198;2022-09-09T14:21:41;24.00;96.30
8595;DHT22;4335;48.860;9.198;2022-09-09T14:24:08;24.00;96.10
8595;DHT22;4335;48.860;9.198;2022-09-09T14:26:34;23.90;96.60
8595;DHT22;4335;48.860;9.198;2022-09-09T14:29:00;24.00;96.20
8595;DHT22;4335;48.860;9.198;2022-09-09T14:31:26;23.90;96.60
8595;DHT22;4335;48.860;9.198;2022-09-09T14:33:52;23.90;96.80
8595;DHT22;4335;48.860;9.198;2022-09-09T14:36:19;23.80;96.10
8595;DHT22;4335;48.860;9.198;2022-09-09T14:38:45;23.80;96.10
8595;DHT22;4335;48.860;9.198;2022-09-09T14:41:13;23.60;95.00
8595;DHT22;4335;48.860;9.198;2022-09-09T14:43:42;23.50;95.70
8595;DHT22;4335;48.860;9.198;2022-09-09T14:46:11;23.40;94.90
8595;DHT22;4335;48.860;9.198;2022-09-09T14:48:37;23.20;95.10
8595;DHT22;4335;48.860;9.198;2022-09-09T14:51:07;23.10;95.40
8595;DHT22;4335;48.860;9.198;2022-09-09T14:53:34;23.00;95.20
8595;DHT22;4335;48.860;9.198;2022-09-09T14:56:05;23.10;95.60
8595;DHT22;4335;48.860;9.198;2022-09-09T14:58:32;23.00;95.80
8595;DHT22;4335;48.860;9.198;2022-09-09T15:01:02;23.10;95.60
8595;DHT22;4335;48.860;9.198;2022-09-09T15:03:28;23.10;95.60
8595;DHT22;4335;48.860;9.198;2022-09-09T15:05:55;23.10;95.40
8595;DHT22;4335;48.860;9.198;2022-09-09T15:08:21;23.10;95.60
8595;DHT22;4335;48.860;9.198;2022-09-09T15:10:47;23.30;96.00
8595;DHT22;4335;48.860;9.198;2022-09-09T15:13:14;23.30;94.80
8595;DHT22;4335;48.860;9.198;2022-09-09T15:15:43;23.30;94.80
8595;DHT22;4335;48.860;9.198;2022-09-09T15:18:09;23.20;94.70
8595;DHT22;4335;48.860;9.198;2022-09-09T15:20:44;23.10;95.00
8595;DHT22;4335;48.860;9.198;2022-09-09T15:23:12;23.00;95.20
8595;DHT22;4335;48.860;9.198;2022-09-09T15:25:50;23.00;95.60
8595;DHT22;4335;48.860;9.198;2022-09-09T15:28:17;22.90;95.60
8595;DHT22;4335;48.860;9.198;2022-09-09T15:30:48;22.80;95.10
8595;DHT22;4335;48.860;9.198;2022-09-09T15:33:14;22.70;95.20
8595;DHT22;4335;48.860;9.198;2022-09-09T15:35:41;22.70;95.70
8595;DHT22;4335;48.860;9.198;2022-09-09T15:38:08;22.70;95.70
8595;DHT22;4335;48.860;9.198;2022-09-09T15:40:34;22.70;96.00
8595;DHT22;4335;48.860;9.198;2022-09-09T15:43:05;22.70;95.80
8595;DHT22;4335;48.860;9.198;2022-09-09T15:45:35;22.60;95.80
8595;DHT22;4335;48.860;9.198;2022-09-09T15:48:03;22.60;95.80
8595;DHT22;4335;48.860;9.198;2022-09-09T15:50:30;22.60;96.10
8595;DHT22;4335;48.860;9.198;2022-09-09T15:53:02;22.50;96.10
8595;DHT22;4335;48.860;9.198;2022-09-09T15:55:29;22.50;96.10
8595;DHT22;4335;48.860;9.198;2022-09-09T15:57:55;22.30;96.30
8595;DHT22;4335;48.860;9.198;2022-09-09T16:00:23;22.20;96.40
8595;DHT22;4335;48.860;9.198;2022-09-09T16:02:50;22.10;96.80
8595;DHT22;4335;48.860;9.198;2022-09-09T16:05:18;22.00;97.10
8595;DHT22;4335;48.860;9.198;2022-09-09T16:07:46;21.90;97.40
8595;DHT22;4335;48.860;9.198;2022-09-09T16:10:13;21.80;97.60
8595;DHT22;4335;48.860;9.198;2022-09-09T16:12:40;21.80;98.20
8595;DHT22;4335;48.860;9.198;2022-09-09T16:15:07;21.80;98.30
8595;DHT22;4335;48.860;9.198;2022-09-09T16:17:36;21.70;98.30
8595;DHT22;4335;48.860;9.198;2022-09-09T16:20:07;21.70;98.80
8595;DHT22;4335;48.860;9.198;2022-09-09T16:22:35;21.70;98.90
8595;DHT22;4335;48.860;9.198;2022-09-09T16:25:02;21.70;99.10
8595;DHT22;4335;48.860;9.198;2022-09-09T16:27:29;21.60;99.40
8595;DHT22;4335;48.860;9.198;2022-09-09T16:29:56;21.50;98.40
8595;DHT22;4335;48.860;9.198;2022-09-09T16:32:22;21.40;97.60